ペトロパブロフスク・カムチャツキー の空港の天気 - METARとTAF

ペトロパブロフスク・カムチャツキー空港 ( UHPP / PKC ) - ロシア ペトロパブロフスク・カムチャツキー
飛行場実況気象(Metar)
観測時間11/15 03:00 MAGT (11/14 16:00 UTC)
風向・風速北北東 3m/s
視程10km以上
天気現象
なし
気温1℃
湿度80%
気圧1017hPa
METARUHPP 141600Z 03003MPS 9999 NSC 01/M02 Q1017 R34L/290150 NOSIG RMK QFE759/1012
過去の天気等 Google飛行場航空写真 Wunderground天気予報

過去48時間のMETAR

飛行場予報(TAF)
発表時間: 11/15 00:57 MAGT (11/14 13:57 UTC)
予報対象時間: 15日2時 MAGT ~ 16日8時 MAGT
風向・風速北北東 3m/s 瞬間風速 12m/s
視程10km以上
全天の8割程度の積乱雲 雲底高度 610m
全天を覆う雲 雲底高度 1220m
15日2時 MAGT ~ 15日11時 MAGT に一時的に
風向・風速東北東 8m/s 瞬間風速 17m/s
視程900m
天気現象強いしゅう雨雪
全天を覆う雲 鉛直視程 90m
15日11時 MAGT から
風向・風速北東 5m/s 瞬間風速 15m/s
視程10km以上
天気現象弱いしゅう雨雪
全天の8割程度の雲 雲底高度 210m
全天を覆う積乱雲 雲底高度 460m
15日11時 MAGT ~ 15日19時 MAGT に一時的に
風向・風速北北西 12m/s 瞬間風速 24m/s
視程1000m
天気現象しゅう雪雨
全天を覆う雲 鉛直視程 90m
15日19時 MAGT から
風向・風速北北西 8m/s 瞬間風速 18m/s
視程10km以上
全天の8割程度の積乱雲 雲底高度 610m
15日19時 MAGT ~ 16日8時 MAGT に一時的に
風向・風速北北東 15m/s 瞬間風速 24m/s
視程1000m
天気現象しゅう雪雨
全天を覆う雲 鉛直視程 90m
TAF UHPP 141357Z 1415/1521 02003G12MPS 9999 BKN020CB OVC040
TEMPO 1415/1424 07008G17MPS 0900 +SHRASN VV003
FM150000 04005G15MPS 9999 -SHRASN BKN007 OVC015CB
TEMPO 1500/1508 34012G24MPS 1000 SHSNRA VV003
FM150800 34008G18MPS 9999 BKN020CB
TEMPO 1508/1521 02015G24MPS 1000 SHSNRA VV003